sensor_id;sensor_type;location;lat;lon;timestamp;pressure;altitude;pressure_sealevel;temperature;humidity
51468;BME280;37545;45.302;-122.946;2023-07-20T00:02:18;100734.44;;;39.23;15.06
51468;BME280;37545;45.302;-122.946;2023-07-20T00:04:47;100740.13;;;39.20;14.79
51468;BME280;37545;45.302;-122.946;2023-07-20T00:07:16;100736.72;;;39.18;14.32
51468;BME280;37545;45.302;-122.946;2023-07-20T00:09:46;100733.28;;;39.16;14.44
51468;BME280;37545;45.302;-122.946;2023-07-20T00:12:15;100719.59;;;39.08;14.52
51468;BME280;37545;45.302;-122.946;2023-07-20T00:14:44;100721.31;;;39.09;13.19
51468;BME280;37545;45.302;-122.946;2023-07-20T00:17:12;100733.34;;;38.85;13.35
51468;BME280;37545;45.302;-122.946;2023-07-20T00:19:44;100725.38;;;38.74;14.68
51468;BME280;37545;45.302;-122.946;2023-07-20T00:22:13;100729.75;;;38.75;16.27
51468;BME280;37545;45.302;-122.946;2023-07-20T00:24:41;100733.59;;;38.63;16.29
51468;BME280;37545;45.302;-122.946;2023-07-20T00:27:12;100726.00;;;38.57;17.37
51468;BME280;37545;45.302;-122.946;2023-07-20T00:29:40;100734.66;;;38.50;15.93
51468;BME280;37545;45.302;-122.946;2023-07-20T00:32:11;100722.41;;;38.46;16.46
51468;BME280;37545;45.302;-122.946;2023-07-20T00:34:40;100726.69;;;38.49;16.63
51468;BME280;37545;45.302;-122.946;2023-07-20T00:37:08;100717.31;;;38.53;16.77
51468;BME280;37545;45.302;-122.946;2023-07-20T00:39:37;100723.72;;;38.52;16.79
51468;BME280;37545;45.302;-122.946;2023-07-20T00:42:06;100720.88;;;38.53;16.75
51468;BME280;37545;45.302;-122.946;2023-07-20T00:44:36;100717.91;;;38.57;16.39
51468;BME280;37545;45.302;-122.946;2023-07-20T00:47:06;100717.19;;;38.54;16.31
51468;BME280;37545;45.302;-122.946;2023-07-20T00:49:34;100714.59;;;38.53;17.16
51468;BME280;37545;45.302;-122.946;2023-07-20T00:52:06;100712.31;;;38.48;16.81
51468;BME280;37545;45.302;-122.946;2023-07-20T00:54:35;100704.41;;;38.35;17.50
51468;BME280;37545;45.302;-122.946;2023-07-20T00:57:05;100708.38;;;38.31;16.96
51468;BME280;37545;45.302;-122.946;2023-07-20T00:59:37;100695.56;;;38.24;17.11
51468;BME280;37545;45.302;-122.946;2023-07-20T01:02:05;100707.34;;;38.23;17.55
51468;BME280;37545;45.302;-122.946;2023-07-20T01:04:34;100700.66;;;38.17;18.10
51468;BME280;37545;45.302;-122.946;2023-07-20T01:07:10;100699.31;;;38.11;19.15
51468;BME280;37545;45.302;-122.946;2023-07-20T01:09:44;100700.13;;;38.02;20.12
51468;BME280;37545;45.302;-122.946;2023-07-20T01:12:22;100703.75;;;37.91;20.99
51468;BME280;37545;45.302;-122.946;2023-07-20T01:14:53;100706.97;;;37.85;20.83
51468;BME280;37545;45.302;-122.946;2023-07-20T01:17:23;100711.06;;;37.80;21.77
51468;BME280;37545;45.302;-122.946;2023-07-20T01:19:52;100712.13;;;37.67;22.22
51468;BME280;37545;45.302;-122.946;2023-07-20T01:22:33;100713.31;;;37.42;22.11
51468;BME280;37545;45.302;-122.946;2023-07-20T01:25:34;100709.91;;;37.08;22.80
51468;BME280;37545;45.302;-122.946;2023-07-20T01:28:23;100711.66;;;36.86;23.11
51468;BME280;37545;45.302;-122.946;2023-07-20T01:33:34;100721.00;;;36.60;23.46
51468;BME280;37545;45.302;-122.946;2023-07-20T01:36:04;100720.50;;;36.43;23.99
51468;BME280;37545;45.302;-122.946;2023-07-20T01:38:34;100710.69;;;36.20;24.28
51468;BME280;37545;45.302;-122.946;2023-07-20T01:41:03;100712.22;;;36.00;24.73
51468;BME280;37545;45.302;-122.946;2023-07-20T01:43:32;100719.44;;;35.88;24.89
51468;BME280;37545;45.302;-122.946;2023-07-20T01:46:01;100723.41;;;35.71;25.36
51468;BME280;37545;45.302;-122.946;2023-07-20T01:48:29;100717.94;;;35.49;25.68
51468;BME280;37545;45.302;-122.946;2023-07-20T01:50:59;100729.28;;;35.41;25.98
51468;BME280;37545;45.302;-122.946;2023-07-20T01:53:31;100723.63;;;35.33;26.30
51468;BME280;37545;45.302;-122.946;2023-07-20T01:55:59;100724.34;;;35.11;26.94
51468;BME280;37545;45.302;-122.946;2023-07-20T01:58:28;100737.44;;;34.91;27.14
51468;BME280;37545;45.302;-122.946;2023-07-20T02:00:56;100741.22;;;34.76;27.13
51468;BME280;37545;45.302;-122.946;2023-07-20T02:03:25;100744.69;;;34.65;27.99
51468;BME280;37545;45.302;-122.946;2023-07-20T02:05:53;100739.41;;;34.51;27.61
51468;BME280;37545;45.302;-122.946;2023-07-20T02:08:25;100746.28;;;34.42;28.51
51468;BME280;37545;45.302;-122.946;2023-07-20T02:10:53;100743.19;;;34.35;28.21
51468;BME280;37545;45.302;-122.946;2023-07-20T02:13:22;100748.94;;;34.04;28.58
51468;BME280;37545;45.302;-122.946;2023-07-20T02:15:51;100753.66;;;33.87;29.01
51468;BME280;37545;45.302;-122.946;2023-07-20T02:18:19;100762.13;;;33.81;28.70
51468;BME280;37545;45.302;-122.946;2023-07-20T02:20:48;100762.19;;;33.67;29.06
51468;BME280;37545;45.302;-122.946;2023-07-20T02:23:17;100768.47;;;33.53;29.46
51468;BME280;37545;45.302;-122.946;2023-07-20T02:25:47;100773.19;;;33.22;29.66
51468;BME280;37545;45.302;-122.946;2023-07-20T02:28:15;100777.53;;;33.10;30.06
51468;BME280;37545;45.302;-122.946;2023-07-20T02:30:44;100782.69;;;32.99;29.92
51468;BME280;37545;45.302;-122.946;2023-07-20T02:33:13;100773.13;;;32.81;30.61
51468;BME280;37545;45.302;-122.946;2023-07-20T02:35:42;100782.22;;;32.64;30.96
51468;BME280;37545;45.302;-122.946;2023-07-20T02:38:10;100778.50;;;32.52;30.54
51468;BME280;37545;45.302;-122.946;2023-07-20T02:40:39;100785.63;;;32.37;30.96
51468;BME280;37545;45.302;-122.946;2023-07-20T02:43:13;100789.91;;;32.25;30.48
51468;BME280;37545;45.302;-122.946;2023-07-20T02:45:41;100789.13;;;32.09;31.43
51468;BME280;37545;45.302;-122.946;2023-07-20T02:48:10;100792.47;;;31.82;31.69
51468;BME280;37545;45.302;-122.946;2023-07-20T02:50:39;100800.03;;;31.60;31.93
51468;BME280;37545;45.302;-122.946;2023-07-20T02:53:07;100799.03;;;31.29;32.04
51468;BME280;37545;45.302;-122.946;2023-07-20T02:55:36;100807.25;;;31.10;32.46
51468;BME280;37545;45.302;-122.946;2023-07-20T02:58:05;100818.44;;;31.01;33.25
51468;BME280;37545;45.302;-122.946;2023-07-20T03:00:35;100807.72;;;30.85;33.30
51468;BME280;37545;45.302;-122.946;2023-07-20T03:03:04;100808.00;;;30.63;32.85
51468;BME280;37545;45.302;-122.946;2023-07-20T03:05:35;100816.59;;;30.52;33.85
51468;BME280;37545;45.302;-122.946;2023-07-20T03:08:05;100821.69;;;30.39;33.48
51468;BME280;37545;45.302;-122.946;2023-07-20T03:10:39;100819.69;;;30.27;34.29
51468;BME280;37545;45.302;-122.946;2023-07-20T03:13:08;100824.59;;;30.00;34.04
51468;BME280;37545;45.302;-122.946;2023-07-20T03:15:39;100828.47;;;29.75;34.79
51468;BME280;37545;45.302;-122.946;2023-07-20T03:18:11;100830.00;;;29.62;35.03
51468;BME280;37545;45.302;-122.946;2023-07-20T03:20:39;100843.69;;;29.54;36.39
51468;BME280;37545;45.302;-122.946;2023-07-20T03:23:08;100837.78;;;29.48;36.48
51468;BME280;37545;45.302;-122.946;2023-07-20T03:25:38;100844.34;;;29.40;36.71
51468;BME280;37545;45.302;-122.946;2023-07-20T03:28:07;100843.72;;;29.35;36.98
51468;BME280;37545;45.302;-122.946;2023-07-20T03:30:35;100847.03;;;29.21;36.30
51468;BME280;37545;45.302;-122.946;2023-07-20T03:33:05;100854.00;;;29.05;37.44
51468;BME280;37545;45.302;-122.946;2023-07-20T03:35:35;100855.25;;;28.96;36.77
51468;BME280;37545;45.302;-122.946;2023-07-20T03:38:05;100862.06;;;28.83;37.37
51468;BME280;37545;45.302;-122.946;2023-07-20T03:40:34;100866.38;;;28.67;38.53
51468;BME280;37545;45.302;-122.946;2023-07-20T03:43:03;100866.78;;;28.57;38.37
51468;BME280;37545;45.302;-122.946;2023-07-20T03:45:31;100869.69;;;28.51;38.16
51468;BME280;37545;45.302;-122.946;2023-07-20T03:48:00;100877.25;;;28.40;37.84
51468;BME280;37545;45.302;-122.946;2023-07-20T03:50:30;100877.56;;;28.32;38.11
51468;BME280;37545;45.302;-122.946;2023-07-20T03:52:59;100874.44;;;28.23;38.40
51468;BME280;37545;45.302;-122.946;2023-07-20T03:55:28;100882.69;;;28.16;38.49
51468;BME280;37545;45.302;-122.946;2023-07-20T03:57:56;100874.13;;;28.08;38.74
51468;BME280;37545;45.302;-122.946;2023-07-20T04:00:27;100880.91;;;27.95;38.83
51468;BME280;37545;45.302;-122.946;2023-07-20T04:02:58;100878.72;;;27.83;38.90
51468;BME280;37545;45.302;-122.946;2023-07-20T04:05:27;100889.59;;;27.76;38.95
51468;BME280;37545;45.302;-122.946;2023-07-20T04:07:58;100894.31;;;27.70;39.29
51468;BME280;37545;45.302;-122.946;2023-07-20T04:10:26;100900.97;;;27.58;39.15
51468;BME280;37545;45.302;-122.946;2023-07-20T04:12:56;100906.69;;;27.47;39.61
51468;BME280;37545;45.302;-122.946;2023-07-20T04:15:25;100899.06;;;27.38;39.99
51468;BME280;37545;45.302;-122.946;2023-07-20T04:17:54;100905.59;;;27.29;40.58
51468;BME280;37545;45.302;-122.946;2023-07-20T04:20:23;100914.72;;;27.22;40.48
51468;BME280;37545;45.302;-122.946;2023-07-20T04:22:51;100915.84;;;27.15;40.51
51468;BME280;37545;45.302;-122.946;2023-07-20T04:25:22;100918.03;;;27.04;41.03
51468;BME280;37545;45.302;-122.946;2023-07-20T04:27:50;100928.00;;;26.97;41.92
51468;BME280;37545;45.302;-122.946;2023-07-20T04:30:20;100922.16;;;26.87;41.98
51468;BME280;37545;45.302;-122.946;2023-07-20T04:32:49;100930.44;;;26.78;41.56
51468;BME280;37545;45.302;-122.946;2023-07-20T04:35:47;100935.28;;;26.67;41.39
51468;BME280;37545;45.302;-122.946;2023-07-20T04:38:16;100940.34;;;26.46;41.99
51468;BME280;37545;45.302;-122.946;2023-07-20T04:40:48;100938.06;;;26.36;41.73
51468;BME280;37545;45.302;-122.946;2023-07-20T04:43:17;100947.97;;;26.30;42.10
51468;BME280;37545;45.302;-122.946;2023-07-20T04:45:46;100947.41;;;26.21;42.51
51468;BME280;37545;45.302;-122.946;2023-07-20T04:48:18;100952.19;;;26.09;42.53
51468;BME280;37545;45.302;-122.946;2023-07-20T04:50:46;100950.78;;;25.98;42.80
51468;BME280;37545;45.302;-122.946;2023-07-20T04:53:15;100959.88;;;25.89;42.91
51468;BME280;37545;45.302;-122.946;2023-07-20T04:55:50;100962.72;;;25.81;43.25
51468;BME280;37545;45.302;-122.946;2023-07-20T04:58:19;100976.22;;;25.74;43.23
51468;BME280;37545;45.302;-122.946;2023-07-20T05:00:48;100976.38;;;25.67;43.91
51468;BME280;37545;45.302;-122.946;2023-07-20T05:03:17;100982.06;;;25.55;43.48
51468;BME280;37545;45.302;-122.946;2023-07-20T05:05:47;100978.06;;;25.40;43.93
51468;BME280;37545;45.302;-122.946;2023-07-20T05:08:16;100987.47;;;25.19;44.49
51468;BME280;37545;45.302;-122.946;2023-07-20T05:10:49;100988.75;;;25.04;45.02
51468;BME280;37545;45.302;-122.946;2023-07-20T05:13:17;100993.47;;;24.92;45.03
51468;BME280;37545;45.302;-122.946;2023-07-20T05:15:46;100991.31;;;24.73;45.32
51468;BME280;37545;45.302;-122.946;2023-07-20T05:18:15;100994.31;;;24.59;46.05
51468;BME280;37545;45.302;-122.946;2023-07-20T05:20:46;100997.34;;;24.42;46.52
51468;BME280;37545;45.302;-122.946;2023-07-20T05:23:17;101007.28;;;24.33;47.38
51468;BME280;37545;45.302;-122.946;2023-07-20T05:25:58;101005.84;;;24.18;47.93
51468;BME280;37545;45.302;-122.946;2023-07-20T05:35:41;101031.41;;;23.75;49.58
51468;BME280;37545;45.302;-122.946;2023-07-20T05:38:10;101025.44;;;23.66;49.14
51468;BME280;37545;45.302;-122.946;2023-07-20T05:40:40;101024.13;;;23.43;50.07
51468;BME280;37545;45.302;-122.946;2023-07-20T05:43:10;101031.28;;;23.36;50.08
51468;BME280;37545;45.302;-122.946;2023-07-20T05:45:42;101036.69;;;23.30;50.55
51468;BME280;37545;45.302;-122.946;2023-07-20T05:48:11;101035.13;;;23.20;50.58
51468;BME280;37545;45.302;-122.946;2023-07-20T05:50:43;101045.06;;;23.06;51.05
51468;BME280;37545;45.302;-122.946;2023-07-20T05:53:11;101045.25;;;22.92;51.40
51468;BME280;37545;45.302;-122.946;2023-07-20T05:55:39;101049.00;;;22.78;51.43
51468;BME280;37545;45.302;-122.946;2023-07-20T05:58:10;101043.91;;;22.68;52.12
51468;BME280;37545;45.302;-122.946;2023-07-20T06:00:48;101053.69;;;22.61;52.16
51468;BME280;37545;45.302;-122.946;2023-07-20T06:03:24;101049.59;;;22.40;52.61
51468;BME280;37545;45.302;-122.946;2023-07-20T06:05:59;101059.31;;;22.36;52.71
51468;BME280;37545;45.302;-122.946;2023-07-20T06:08:34;101062.94;;;22.29;53.47
51468;BME280;37545;45.302;-122.946;2023-07-20T06:11:02;101061.34;;;22.16;53.51
51468;BME280;37545;45.302;-122.946;2023-07-20T06:13:32;101073.72;;;22.11;54.05
51468;BME280;37545;45.302;-122.946;2023-07-20T06:16:01;101077.38;;;21.98;54.79
51468;BME280;37545;45.302;-122.946;2023-07-20T06:18:30;101078.47;;;21.80;54.98
51468;BME280;37545;45.302;-122.946;2023-07-20T06:21:00;101079.50;;;21.66;55.41
51468;BME280;37545;45.302;-122.946;2023-07-20T06:23:29;101080.50;;;21.54;56.17
51468;BME280;37545;45.302;-122.946;2023-07-20T06:25:58;101085.94;;;21.38;56.64
51468;BME280;37545;45.302;-122.946;2023-07-20T06:28:26;101086.88;;;21.29;56.85
51468;BME280;37545;45.302;-122.946;2023-07-20T06:31:01;101091.31;;;21.24;57.64
51468;BME280;37545;45.302;-122.946;2023-07-20T06:33:30;101087.88;;;21.16;57.41
51468;BME280;37545;45.302;-122.946;2023-07-20T06:35:58;101095.81;;;21.09;57.76
51468;BME280;37545;45.302;-122.946;2023-07-20T06:38:27;101090.59;;;21.06;58.17
51468;BME280;37545;45.302;-122.946;2023-07-20T06:40:55;101088.84;;;21.02;58.02
51468;BME280;37545;45.302;-122.946;2023-07-20T06:43:24;101102.06;;;20.98;58.18
51468;BME280;37545;45.302;-122.946;2023-07-20T06:45:53;101104.72;;;20.96;58.38
51468;BME280;37545;45.302;-122.946;2023-07-20T06:48:24;101108.25;;;20.92;58.64
51468;BME280;37545;45.302;-122.946;2023-07-20T06:50:52;101102.13;;;20.90;58.91
51468;BME280;37545;45.302;-122.946;2023-07-20T06:53:21;101110.00;;;20.90;59.05
51468;BME280;37545;45.302;-122.946;2023-07-20T06:55:50;101110.88;;;20.90;59.43
51468;BME280;37545;45.302;-122.946;2023-07-20T06:58:19;101119.66;;;20.86;59.45
51468;BME280;37545;45.302;-122.946;2023-07-20T07:00:48;101114.47;;;20.80;59.45
51468;BME280;37545;45.302;-122.946;2023-07-20T07:03:17;101115.41;;;20.71;59.86
51468;BME280;37545;45.302;-122.946;2023-07-20T07:05:47;101122.44;;;20.69;59.94
51468;BME280;37545;45.302;-122.946;2023-07-20T07:08:16;101119.81;;;20.63;60.16
51468;BME280;37545;45.302;-122.946;2023-07-20T07:10:45;101124.22;;;20.61;60.39
51468;BME280;37545;45.302;-122.946;2023-07-20T07:13:13;101126.00;;;20.59;60.23
51468;BME280;37545;45.302;-122.946;2023-07-20T07:15:43;101125.97;;;20.55;60.16
51468;BME280;37545;45.302;-122.946;2023-07-20T07:18:12;101118.13;;;20.47;60.20
51468;BME280;37545;45.302;-122.946;2023-07-20T07:20:40;101130.41;;;20.51;60.31
51468;BME280;37545;45.302;-122.946;2023-07-20T07:23:11;101132.16;;;20.50;60.44
51468;BME280;37545;45.302;-122.946;2023-07-20T07:25:39;101135.66;;;20.51;60.39
51468;BME280;37545;45.302;-122.946;2023-07-20T07:28:08;101140.91;;;20.49;60.38
51468;BME280;37545;45.302;-122.946;2023-07-20T07:30:37;101138.31;;;20.48;60.51
51468;BME280;37545;45.302;-122.946;2023-07-20T07:33:06;101148.81;;;20.48;60.71
51468;BME280;37545;45.302;-122.946;2023-07-20T07:35:35;101143.59;;;20.43;60.77
51468;BME280;37545;45.302;-122.946;2023-07-20T07:38:04;101147.09;;;20.36;60.84
51468;BME280;37545;45.302;-122.946;2023-07-20T07:40:37;101150.63;;;20.34;61.88
51468;BME280;37545;45.302;-122.946;2023-07-20T07:43:08;101148.03;;;20.24;62.22
51468;BME280;37545;45.302;-122.946;2023-07-20T07:45:38;101148.03;;;20.20;62.08
51468;BME280;37545;45.302;-122.946;2023-07-20T07:48:07;101153.31;;;20.20;62.41
51468;BME280;37545;45.302;-122.946;2023-07-20T07:50:38;101155.09;;;20.15;63.23
51468;BME280;37545;45.302;-122.946;2023-07-20T07:53:11;101155.97;;;20.06;63.32
51468;BME280;37545;45.302;-122.946;2023-07-20T07:55:41;101157.75;;;19.99;64.27
51468;BME280;37545;45.302;-122.946;2023-07-20T07:58:09;101159.56;;;19.86;64.62
51468;BME280;37545;45.302;-122.946;2023-07-20T08:00:38;101161.31;;;19.78;64.95
51468;BME280;37545;45.302;-122.946;2023-07-20T08:03:09;101163.06;;;19.73;65.04
51468;BME280;37545;45.302;-122.946;2023-07-20T08:05:37;101168.34;;;19.70;65.04
51468;BME280;37545;45.302;-122.946;2023-07-20T08:08:06;101172.69;;;19.66;65.33
51468;BME280;37545;45.302;-122.946;2023-07-20T08:10:35;101171.78;;;19.63;65.87
51468;BME280;37545;45.302;-122.946;2023-07-20T08:13:05;101176.19;;;19.55;66.14
51468;BME280;37545;45.302;-122.946;2023-07-20T08:15:34;101173.56;;;19.49;67.02
51468;BME280;37545;45.302;-122.946;2023-07-20T08:18:02;101158.69;;;19.37;66.84
51468;BME280;37545;45.302;-122.946;2023-07-20T08:20:31;101183.22;;;19.40;67.31
51468;BME280;37545;45.302;-122.946;2023-07-20T08:23:02;101185.81;;;19.37;67.52
51468;BME280;37545;45.302;-122.946;2023-07-20T08:25:31;101179.69;;;19.37;67.52
51468;BME280;37545;45.302;-122.946;2023-07-20T08:27:59;101181.44;;;19.41;67.76
51468;BME280;37545;45.302;-122.946;2023-07-20T08:30:40;101186.69;;;19.41;67.50
51468;BME280;37545;45.302;-122.946;2023-07-20T08:33:13;101191.06;;;19.37;67.64
51468;BME280;37545;45.302;-122.946;2023-07-20T08:35:42;101195.44;;;19.24;68.12
51468;BME280;37545;45.302;-122.946;2023-07-20T08:38:11;101202.41;;;19.21;67.93
51468;BME280;37545;45.302;-122.946;2023-07-20T08:40:41;101205.94;;;19.15;68.28
51468;BME280;37545;45.302;-122.946;2023-07-20T08:43:11;101206.78;;;19.10;68.87
51468;BME280;37545;45.302;-122.946;2023-07-20T08:45:41;101215.50;;;19.02;68.85
51468;BME280;37545;45.302;-122.946;2023-07-20T08:48:12;101213.75;;;18.97;69.16
51468;BME280;37545;45.302;-122.946;2023-07-20T08:50:42;101208.50;;;18.92;69.03
51468;BME280;37545;45.302;-122.946;2023-07-20T08:53:12;101206.75;;;18.88;70.07
51468;BME280;37545;45.302;-122.946;2023-07-20T08:55:44;101207.56;;;18.78;70.47
51468;BME280;37545;45.302;-122.946;2023-07-20T08:58:14;101216.28;;;18.69;71.51
51468;BME280;37545;45.302;-122.946;2023-07-20T09:00:45;101217.13;;;18.60;71.40
51468;BME280;37545;45.302;-122.946;2023-07-20T09:03:18;101215.34;;;18.56;71.90
51468;BME280;37545;45.302;-122.946;2023-07-20T09:05:47;101219.69;;;18.51;72.82
51468;BME280;37545;45.302;-122.946;2023-07-20T09:08:16;101217.03;;;18.43;72.34
51468;BME280;37545;45.302;-122.946;2023-07-20T09:10:45;101216.13;;;18.41;72.46
51468;BME280;37545;45.302;-122.946;2023-07-20T09:13:15;101213.50;;;18.41;72.84
51468;BME280;37545;45.302;-122.946;2023-07-20T09:15:49;101215.25;;;18.38;72.54
51468;BME280;37545;45.302;-122.946;2023-07-20T09:18:25;101208.25;;;18.37;73.07
51468;BME280;37545;45.302;-122.946;2023-07-20T09:20:58;101216.13;;;18.37;71.95
51468;BME280;37545;45.302;-122.946;2023-07-20T09:23:32;101217.00;;;18.39;72.42
51468;BME280;37545;45.302;-122.946;2023-07-20T09:26:01;101213.53;;;18.40;72.86
51468;BME280;37545;45.302;-122.946;2023-07-20T09:28:44;101210.00;;;18.33;73.48
51468;BME280;37545;45.302;-122.946;2023-07-20T09:31:18;101215.25;;;18.30;73.86
51468;BME280;37545;45.302;-122.946;2023-07-20T09:33:48;101213.44;;;18.28;73.83
51468;BME280;37545;45.302;-122.946;2023-07-20T09:36:17;101227.41;;;18.22;74.29
51468;BME280;37545;45.302;-122.946;2023-07-20T09:38:53;101227.34;;;18.13;74.61
51468;BME280;37545;45.302;-122.946;2023-07-20T09:41:21;101220.31;;;18.04;76.01
51468;BME280;37545;45.302;-122.946;2023-07-20T09:43:50;101225.50;;;17.98;76.10
51468;BME280;37545;45.302;-122.946;2023-07-20T09:46:20;101227.22;;;17.93;76.23
51468;BME280;37545;45.302;-122.946;2023-07-20T09:48:52;101233.31;;;17.87;76.03
51468;BME280;37545;45.302;-122.946;2023-07-20T09:51:22;101231.56;;;17.88;76.30
51468;BME280;37545;45.302;-122.946;2023-07-20T09:53:52;101231.56;;;17.88;76.06
51468;BME280;37545;45.302;-122.946;2023-07-20T09:56:22;101230.66;;;17.89;76.85
51468;BME280;37545;45.302;-122.946;2023-07-20T09:58:54;101239.41;;;17.91;76.09
51468;BME280;37545;45.302;-122.946;2023-07-20T10:01:24;101231.59;;;17.95;75.80
51468;BME280;37545;45.302;-122.946;2023-07-20T10:03:55;101231.63;;;17.98;75.62
51468;BME280;37545;45.302;-122.946;2023-07-20T10:06:29;101235.97;;;17.98;75.53
51468;BME280;37545;45.302;-122.946;2023-07-20T10:09:01;101237.72;;;17.96;75.42
51468;BME280;37545;45.302;-122.946;2023-07-20T10:11:30;101240.31;;;17.93;76.20
51468;BME280;37545;45.302;-122.946;2023-07-20T10:13:59;101242.94;;;17.93;75.55
51468;BME280;37545;45.302;-122.946;2023-07-20T10:16:35;101241.19;;;17.93;76.43
51468;BME280;37545;45.302;-122.946;2023-07-20T10:19:07;101235.91;;;17.89;76.42
51468;BME280;37545;45.302;-122.946;2023-07-20T10:21:40;101250.75;;;17.85;76.53
51468;BME280;37545;45.302;-122.946;2023-07-20T10:24:09;101251.59;;;17.83;76.84
51468;BME280;37545;45.302;-122.946;2023-07-20T10:26:40;101256.75;;;17.76;77.04
51468;BME280;37545;45.302;-122.946;2023-07-20T10:29:09;101254.91;;;17.68;77.50
51468;BME280;37545;45.302;-122.946;2023-07-20T10:31:40;101253.13;;;17.62;77.94
51468;BME280;37545;45.302;-122.946;2023-07-20T10:34:09;101247.84;;;17.59;78.21
51468;BME280;37545;45.302;-122.946;2023-07-20T10:36:44;101258.34;;;17.57;78.01
51468;BME280;37545;45.302;-122.946;2023-07-20T10:39:25;101258.28;;;17.53;78.96
51468;BME280;37545;45.302;-122.946;2023-07-20T10:42:01;101259.06;;;17.43;79.34
51468;BME280;37545;45.302;-122.946;2023-07-20T10:44:30;101254.63;;;17.35;79.36
51468;BME280;37545;45.302;-122.946;2023-07-20T10:47:08;101247.66;;;17.34;79.84
51468;BME280;37545;45.302;-122.946;2023-07-20T10:50:00;101257.22;;;17.34;79.85
51468;BME280;37545;45.302;-122.946;2023-07-20T10:52:37;101254.63;;;17.32;80.25
51468;BME280;37545;45.302;-122.946;2023-07-20T10:55:13;101265.91;;;17.31;80.63
51468;BME280;37545;45.302;-122.946;2023-07-20T10:57:42;101271.09;;;17.24;80.51
51468;BME280;37545;45.302;-122.946;2023-07-20T11:00:12;101266.66;;;17.16;80.91
51468;BME280;37545;45.302;-122.946;2023-07-20T11:02:47;101270.97;;;17.13;81.43
51468;BME280;37545;45.302;-122.946;2023-07-20T11:05:37;101278.81;;;17.13;80.97
51468;BME280;37545;45.302;-122.946;2023-07-20T11:08:10;101277.91;;;17.09;81.45
51468;BME280;37545;45.302;-122.946;2023-07-20T11:10:39;101276.09;;;17.02;81.73
51468;BME280;37545;45.302;-122.946;2023-07-20T11:13:21;101285.59;;;16.95;82.66
51468;BME280;37545;45.302;-122.946;2023-07-20T11:16:04;101284.69;;;16.93;82.50
51468;BME280;37545;45.302;-122.946;2023-07-20T11:18:38;101292.47;;;16.90;82.30
51468;BME280;37545;45.302;-122.946;2023-07-20T11:21:09;101289.00;;;16.90;81.84
51468;BME280;37545;45.302;-122.946;2023-07-20T11:23:39;101293.38;;;16.91;82.26
51468;BME280;37545;45.302;-122.946;2023-07-20T11:26:08;101283.81;;;16.91;82.44
51468;BME280;37545;45.302;-122.946;2023-07-20T11:28:38;101292.53;;;16.93;81.57
51468;BME280;37545;45.302;-122.946;2023-07-20T11:31:07;101292.56;;;16.96;80.97
51468;BME280;37545;45.302;-122.946;2023-07-20T11:33:38;101289.13;;;16.98;81.23
51468;BME280;37545;45.302;-122.946;2023-07-20T11:36:08;101294.38;;;17.01;81.19
51468;BME280;37545;45.302;-122.946;2023-07-20T11:38:39;101303.94;;;17.02;80.30
51468;BME280;37545;45.302;-122.946;2023-07-20T11:41:09;101303.09;;;17.03;80.83
51468;BME280;37545;45.302;-122.946;2023-07-20T11:43:41;101298.72;;;17.02;80.68
51468;BME280;37545;45.302;-122.946;2023-07-20T11:46:10;101300.47;;;17.01;80.80
51468;BME280;37545;45.302;-122.946;2023-07-20T11:48:41;101305.69;;;17.00;80.75
51468;BME280;37545;45.302;-122.946;2023-07-20T11:51:14;101305.69;;;17.01;80.80
51468;BME280;37545;45.302;-122.946;2023-07-20T11:53:44;101300.41;;;16.95;81.00
51468;BME280;37545;45.302;-122.946;2023-07-20T11:56:14;101306.53;;;16.99;80.56
51468;BME280;37545;45.302;-122.946;2023-07-20T11:58:44;101310.03;;;16.98;81.44
51468;BME280;37545;45.302;-122.946;2023-07-20T12:01:13;101306.50;;;16.95;81.01
51468;BME280;37545;45.302;-122.946;2023-07-20T12:03:44;101301.25;;;16.94;80.03
51468;BME280;37545;45.302;-122.946;2023-07-20T12:06:13;101309.09;;;16.94;80.94
51468;BME280;37545;45.302;-122.946;2023-07-20T12:08:43;101305.59;;;16.92;81.28
51468;BME280;37545;45.302;-122.946;2023-07-20T12:11:12;101307.31;;;16.88;80.91
51468;BME280;37545;45.302;-122.946;2023-07-20T12:13:43;101315.09;;;16.85;82.35
51468;BME280;37545;45.302;-122.946;2023-07-20T12:16:13;101320.31;;;16.85;82.63
51468;BME280;37545;45.302;-122.946;2023-07-20T12:18:45;101322.03;;;16.82;82.79
51468;BME280;37545;45.302;-122.946;2023-07-20T12:21:13;101329.72;;;16.72;83.21
51468;BME280;37545;45.302;-122.946;2023-07-20T12:23:42;101337.38;;;16.62;84.25
51468;BME280;37545;45.302;-122.946;2023-07-20T12:26:11;101332.88;;;16.51;85.25
51468;BME280;37545;45.302;-122.946;2023-07-20T12:28:42;101346.72;;;16.43;85.37
51468;BME280;37545;45.302;-122.946;2023-07-20T12:31:25;101344.91;;;16.39;86.14
51468;BME280;37545;45.302;-122.946;2023-07-20T12:33:57;101343.97;;;16.35;87.07
51468;BME280;37545;45.302;-122.946;2023-07-20T12:36:26;101351.72;;;16.30;87.49
51468;BME280;37545;45.302;-122.946;2023-07-20T12:38:55;101354.34;;;16.29;87.75
51468;BME280;37545;45.302;-122.946;2023-07-20T12:41:24;101363.00;;;16.28;87.10
51468;BME280;37545;45.302;-122.946;2023-07-20T12:43:53;101362.16;;;16.29;88.12
51468;BME280;37545;45.302;-122.946;2023-07-20T12:46:26;101370.88;;;16.29;87.35
51468;BME280;37545;45.302;-122.946;2023-07-20T12:49:03;101375.25;;;16.32;87.26